Terminal Aerodrome Forecast
Issued by NWS

Home | Current Version | Previous Version | Text Only | Print | Product List | Glossary Off
Versions: 1 2 3 4 5 6 7 8 9 10 11 12 13 14 15 16

000
FTUS43 KICT 230540
TAFRSL
TAF
KRSL 230540Z 2306/2406 06013KT P6SM SCT150 BKN250
     FM230900 07013KT P6SM OVC150
     FM231100 07017KT P6SM OVC070
     FM231500 07017KT P6SM BKN017
     FM231800 08013KT P6SM OVC025=

USA.gov is the U.S. government's official web portal to all federal, state and local government web resources and services.